Time,TemperatureF,DewpointF,PressureIn,WindDirection,WindDirectionDegrees,WindSpeedMPH,WindSpeedGustMPH,Humidity,HourlyPrecipIn,Conditions,Clouds,dailyrainin,SolarRadiationWatts/m^2,SoftwareType,DateUTC
2013-09-04 00:00:00,58.0,51.0,-100.00,SSW,202,0.0,-999.0,80,-99.99,,,-99.99,0.000000,,2013-09-04 04:00:00,
2013-09-04 00:44:00,58.0,51.0,-100.00,SSW,202,0.0,-999.0,80,-99.99,,,-99.99,0.000000,,2013-09-04 04:44:00,
2013-09-04 00:54:00,58.0,51.0,-100.00,SSW,202,0.0,-999.0,80,-99.99,,,-99.99,0.000000,,2013-09-04 04:54:00,
2013-09-04 01:00:00,60.0,52.0,-100.00,SW,225,2.0,-999.0,75,-99.99,,,-99.99,0.000000,,2013-09-04 05:00:00,
2013-09-04 01:43:00,60.0,52.0,-100.00,SW,225,2.0,-999.0,75,-99.99,,,-99.99,0.000000,,2013-09-04 05:43:00,
2013-09-04 01:53:00,60.0,52.0,-100.00,SW,225,2.0,-999.0,75,-99.99,,,-99.99,0.000000,,2013-09-04 05:53:00,
2013-09-04 02:00:00,63.0,53.0,-100.00,West,270,2.0,-999.0,70,-99.99,,,-99.99,0.000000,,2013-09-04 06:00:00,
2013-09-04 02:42:00,63.0,53.0,-100.00,West,270,2.0,-999.0,70,-99.99,,,-99.99,0.000000,,2013-09-04 06:42:00,
2013-09-04 02:52:00,63.0,53.0,-100.00,West,270,2.0,-999.0,70,-99.99,,,-99.99,0.000000,,2013-09-04 06:52:00,
2013-09-04 03:00:00,63.0,54.0,-100.00,West,270,2.0,-999.0,71,-99.99,,,-99.99,0.000000,,2013-09-04 07:00:00,
2013-09-04 03:42:00,63.0,54.0,-100.00,West,270,2.0,-999.0,71,-99.99,,,-99.99,0.000000,,2013-09-04 07:42:00,
2013-09-04 03:52:00,63.0,54.0,-100.00,West,270,2.0,-999.0,71,-99.99,,,-99.99,0.000000,,2013-09-04 07:52:00,
2013-09-04 04:00:00,61.0,55.0,-100.00,South,180,1.0,-999.0,79,-99.99,,,-99.99,0.000000,,2013-09-04 08:00:00,
2013-09-04 04:43:00,61.0,55.0,-100.00,South,180,1.0,-999.0,79,-99.99,,,-99.99,0.000000,,2013-09-04 08:43:00,
2013-09-04 04:52:00,61.0,55.0,-100.00,South,180,1.0,-999.0,79,-99.99,,,-99.99,0.000000,,2013-09-04 08:52:00,
2013-09-04 05:00:00,62.0,57.0,-100.00,SSE,157,4.0,-999.0,83,-99.99,,,-99.99,0.000000,,2013-09-04 09:00:00,
2013-09-04 05:43:00,62.0,57.0,-100.00,SSE,157,4.0,-999.0,83,-99.99,,,-99.99,0.000000,,2013-09-04 09:43:00,
2013-09-04 05:53:00,62.0,57.0,-100.00,SSE,157,4.0,-999.0,83,-99.99,,,-99.99,0.000000,,2013-09-04 09:53:00,
2013-09-04 06:00:00,58.0,55.0,-100.00,SE,135,6.0,-999.0,91,-99.99,,,-99.99,0.000000,,2013-09-04 10:00:00,
2013-09-04 06:42:00,58.0,55.0,-100.00,SE,135,6.0,-999.0,91,-99.99,,,-99.99,0.000000,,2013-09-04 10:42:00,
2013-09-04 06:52:00,58.0,55.0,-100.00,SE,135,6.0,-999.0,91,-99.99,,,-99.99,0.000000,,2013-09-04 10:52:00,
2013-09-04 09:00:00,53.0,52.0,-100.00,East,90,2.0,-999.0,94,-99.99,,,-99.99,49.880001,,2013-09-04 13:00:00,
2013-09-04 09:42:00,53.0,52.0,-100.00,East,90,2.0,-999.0,94,-99.99,,,-99.99,49.880001,,2013-09-04 13:42:00,
2013-09-04 09:52:00,53.0,52.0,-100.00,East,90,2.0,-999.0,94,-99.99,,,-99.99,49.880001,,2013-09-04 13:52:00,
2013-09-04 10:00:00,56.0,52.0,-100.00,East,90,4.0,-999.0,85,-99.99,,,-99.99,228.520004,,2013-09-04 14:00:00,
2013-09-04 10:42:00,56.0,52.0,-100.00,East,90,4.0,-999.0,85,-99.99,,,-99.99,228.520004,,2013-09-04 14:42:00,
2013-09-04 10:52:00,56.0,52.0,-100.00,East,90,4.0,-999.0,85,-99.99,,,-99.99,228.520004,,2013-09-04 14:52:00,
2013-09-04 11:00:00,58.0,50.0,-100.00,ESE,112,4.0,-999.0,74,-99.99,,,-99.99,370.040009,,2013-09-04 15:00:00,
2013-09-04 11:43:00,58.0,50.0,-100.00,ESE,112,4.0,-999.0,74,-99.99,,,-99.99,370.040009,,2013-09-04 15:43:00,
2013-09-04 11:53:00,58.0,50.0,-100.00,ESE,112,4.0,-999.0,74,-99.99,,,-99.99,370.040009,,2013-09-04 15:53:00,
2013-09-04 12:00:00,60.0,50.0,-100.00,SE,135,4.0,-999.0,69,-99.99,,,-99.99,472.119995,,2013-09-04 16:00:00,
2013-09-04 12:43:00,60.0,50.0,-100.00,SE,135,4.0,-999.0,69,-99.99,,,-99.99,472.119995,,2013-09-04 16:43:00,
2013-09-04 12:53:00,60.0,50.0,-100.00,SE,135,4.0,-999.0,69,-99.99,,,-99.99,472.119995,,2013-09-04 16:53:00,
2013-09-04 13:00:00,60.0,49.0,-100.00,ESE,112,5.0,-999.0,66,-99.99,,,-99.99,564.919983,,2013-09-04 17:00:00,
2013-09-04 13:42:00,60.0,49.0,-100.00,ESE,112,5.0,-999.0,66,-99.99,,,-99.99,564.919983,,2013-09-04 17:42:00,
2013-09-04 13:53:00,60.0,49.0,-100.00,ESE,112,5.0,-999.0,66,-99.99,,,-99.99,564.919983,,2013-09-04 17:53:00,
2013-09-04 14:00:00,61.0,49.0,-100.00,SE,135,4.0,-999.0,64,-99.99,,,-99.99,675.119995,,2013-09-04 18:00:00,
2013-09-04 14:42:00,61.0,49.0,-100.00,SE,135,4.0,-999.0,64,-99.99,,,-99.99,675.119995,,2013-09-04 18:42:00,
2013-09-04 14:52:00,61.0,49.0,-100.00,SE,135,4.0,-999.0,64,-99.99,,,-99.99,675.119995,,2013-09-04 18:52:00,
2013-09-04 15:00:00,62.0,49.0,-100.00,SSE,157,3.0,-999.0,61,-99.99,,,-99.99,721.520020,,2013-09-04 19:00:00,
2013-09-04 15:42:00,62.0,49.0,-100.00,SSE,157,3.0,-999.0,61,-99.99,,,-99.99,721.520020,,2013-09-04 19:42:00,
2013-09-04 15:52:00,62.0,49.0,-100.00,SSE,157,3.0,-999.0,61,-99.99,,,-99.99,721.520020,,2013-09-04 19:52:00,
2013-09-04 16:00:00,63.0,47.0,-100.00,SE,135,4.0,-999.0,55,-99.99,,,-99.99,658.880005,,2013-09-04 20:00:00,
2013-09-04 16:43:00,63.0,47.0,-100.00,SE,135,4.0,-999.0,55,-99.99,,,-99.99,658.880005,,2013-09-04 20:43:00,
2013-09-04 16:53:00,63.0,47.0,-100.00,SE,135,4.0,-999.0,55,-99.99,,,-99.99,658.880005,,2013-09-04 20:53:00,
2013-09-04 17:00:00,62.0,45.0,-100.00,SSW,202,3.0,-999.0,53,-99.99,,,-99.99,540.559998,,2013-09-04 21:00:00,
2013-09-04 17:44:00,62.0,45.0,-100.00,SSW,202,3.0,-999.0,53,-99.99,,,-99.99,540.559998,,2013-09-04 21:44:00,
2013-09-04 17:54:00,62.0,45.0,-100.00,SSW,202,3.0,-999.0,53,-99.99,,,-99.99,540.559998,,2013-09-04 21:54:00,
2013-09-04 18:00:00,61.0,45.0,-100.00,SE,135,3.0,-999.0,56,-99.99,,,-99.99,345.679993,,2013-09-04 22:00:00,
2013-09-04 18:43:00,61.0,45.0,-100.00,SE,135,3.0,-999.0,56,-99.99,,,-99.99,345.679993,,2013-09-04 22:43:00,
2013-09-04 18:55:00,61.0,45.0,-100.00,SE,135,3.0,-999.0,56,-99.99,,,-99.99,345.679993,,2013-09-04 22:55:00,
2013-09-04 19:00:00,59.0,47.0,-100.00,ESE,112,3.0,-999.0,62,-99.99,,,-99.99,252.880005,,2013-09-04 23:00:00,
2013-09-04 19:42:00,59.0,47.0,-100.00,ESE,112,3.0,-999.0,62,-99.99,,,-99.99,252.880005,,2013-09-04 23:42:00,
2013-09-04 19:52:00,59.0,47.0,-100.00,ESE,112,3.0,-999.0,62,-99.99,,,-99.99,252.880005,,2013-09-04 23:52:00,
2013-09-04 20:00:00,55.0,46.0,-100.00,ESE,112,2.0,-999.0,72,-99.99,,,-99.99,81.199997,,2013-09-05 00:00:00,
2013-09-04 20:43:00,55.0,46.0,-100.00,ESE,112,2.0,-999.0,72,-99.99,,,-99.99,81.199997,,2013-09-05 00:43:00,
2013-09-04 20:52:00,55.0,46.0,-100.00,ESE,112,2.0,-999.0,72,-99.99,,,-99.99,81.199997,,2013-09-05 00:52:00,
2013-09-04 23:00:00,45.0,43.0,-100.00,West,270,0.0,-999.0,92,-99.99,,,-99.99,0.000000,,2013-09-05 03:00:00,
2013-09-04 23:45:00,45.0,43.0,-100.00,West,270,0.0,-999.0,92,-99.99,,,-99.99,0.000000,,2013-09-05 03:45:00,
2013-09-04 23:54:00,45.0,43.0,-100.00,West,270,0.0,-999.0,92,-99.99,,,-99.99,0.000000,,2013-09-05 03:54:00,